Time;durP1;ratioP1;P1;durP2;ratioP2;P2;SDS_P1;SDS_P2;PMS_P1;PMS_P2;Temp;Humidity;BMP_temperature;BMP_pressure;BME280_temperature;BME280_humidity;BME280_pressure;Samples;Min_cycle;Max_cycle;Signal;HPM_P1;HPM_P2
2022/10/31 00:01:30;;;;;;;;;;;20.50;73.20;;;;;;5093707;28;1014;-68
2022/10/31 00:03:55;;;;;;;;;;;20.50;73.20;;;;;;5073626;28;1124;-67
2022/10/31 00:06:21;;;;;;;;;;;20.50;73.20;;;;;;5072560;28;1030;-67
2022/10/31 00:08:47;;;;;;;;;;;20.50;73.20;;;;;;5074520;28;1902;-67
2022/10/31 00:11:12;;;;;;;;;;;20.50;73.20;;;;;;5091653;28;1045;-66
2022/10/31 00:13:38;;;;;;;;;;;20.50;73.20;;;;;;5072338;28;872;-67
2022/10/31 00:16:03;;;;;;;;;;;20.50;73.20;;;;;;5090727;28;823;-67
2022/10/31 00:18:29;;;;;;;;;;;20.50;73.20;;;;;;5091719;28;1271;-67
2022/10/31 00:21:01;;;;;;;;;;;20.50;73.20;;;;;;5090411;28;1005;-67
2022/10/31 00:23:26;;;;;;;;;;;20.50;73.20;;;;;;5090011;28;1025;-67
2022/10/31 00:25:51;;;;;;;;;;;20.50;73.20;;;;;;5093086;28;835;-67
2022/10/31 00:28:17;;;;;;;;;;;20.50;73.30;;;;;;5090488;28;1227;-67
2022/10/31 00:30:42;;;;;;;;;;;20.50;73.20;;;;;;5090848;28;1949;-67
2022/10/31 00:33:08;;;;;;;;;;;20.50;73.20;;;;;;5092141;28;1354;-67
2022/10/31 00:35:33;;;;;;;;;;;20.50;73.20;;;;;;5087874;28;1633;-68
2022/10/31 00:37:59;;;;;;;;;;;20.50;73.20;;;;;;5089144;28;1323;-68
2022/10/31 00:40:24;;;;;;;;;;;20.50;73.20;;;;;;5089861;28;1540;-69
2022/10/31 00:42:49;;;;;;;;;;;20.50;73.20;;;;;;5090847;28;1322;-67
2022/10/31 00:45:15;;;;;;;;;;;20.50;73.20;;;;;;5089242;28;1635;-68
2022/10/31 00:47:40;;;;;;;;;;;20.50;73.20;;;;;;5071066;28;1405;-67
2022/10/31 00:50:06;;;;;;;;;;;20.50;73.30;;;;;;5092618;28;1910;-68
2022/10/31 00:52:31;;;;;;;;;;;20.50;73.30;;;;;;5072174;28;1263;-69
2022/10/31 00:54:57;;;;;;;;;;;20.50;73.20;;;;;;5089386;28;1353;-69
2022/10/31 00:57:22;;;;;;;;;;;20.50;73.20;;;;;;5090217;28;1433;-67
2022/10/31 00:59:48;;;;;;;;;;;20.50;73.20;;;;;;5089977;28;1339;-68
2022/10/31 01:02:13;;;;;;;;;;;20.50;73.30;;;;;;5072145;28;1384;-69
2022/10/31 01:04:38;;;;;;;;;;;20.50;73.30;;;;;;5086971;28;1231;-67
2022/10/31 01:07:04;;;;;;;;;;;20.50;73.30;;;;;;5089659;28;1396;-65
2022/10/31 01:09:29;;;;;;;;;;;20.50;73.30;;;;;;5088613;28;1913;-66
2022/10/31 01:11:55;;;;;;;;;;;20.50;73.30;;;;;;5089460;28;1458;-66
2022/10/31 01:14:20;;;;;;;;;;;20.50;73.20;;;;;;5089813;28;1498;-68
2022/10/31 01:16:46;;;;;;;;;;;20.50;73.30;;;;;;5094050;28;1338;-67
2022/10/31 01:19:11;;;;;;;;;;;20.50;73.30;;;;;;5074019;28;1361;-67
2022/10/31 01:21:36;;;;;;;;;;;20.50;73.30;;;;;;5089093;28;1539;-67
2022/10/31 01:24:02;;;;;;;;;;;20.50;73.30;;;;;;5079920;28;970;-68
2022/10/31 01:26:29;;;;;;;;;;;20.50;73.30;;;;;;5095055;28;986;-68
2022/10/31 01:28:59;;;;;;;;;;;20.50;73.30;;;;;;5089778;28;1910;-68
2022/10/31 01:31:31;;;;;;;;;;;20.50;73.30;;;;;;5073699;28;1730;-68
2022/10/31 01:33:57;;;;;;;;;;;20.50;73.30;;;;;;5071110;28;988;-68
2022/10/31 01:36:23;;;;;;;;;;;20.50;73.30;;;;;;5092354;28;914;-68
2022/10/31 01:38:49;;;;;;;;;;;20.50;73.30;;;;;;5071402;28;1354;-68
2022/10/31 01:41:15;;;;;;;;;;;20.50;73.30;;;;;;5091456;28;773;-68
2022/10/31 01:43:54;;;;;;;;;;;20.50;73.30;;;;;;5078901;28;883;-68
2022/10/31 01:46:40;;;;;;;;;;;20.50;73.30;;;;;;5093417;28;918;-68
2022/10/31 01:49:08;;;;;;;;;;;20.50;73.30;;;;;;5092928;28;1906;-68
2022/10/31 01:51:34;;;;;;;;;;;20.50;73.30;;;;;;5075954;28;790;-68
2022/10/31 01:54:01;;;;;;;;;;;20.50;73.30;;;;;;5077663;28;1069;-67
2022/10/31 01:56:26;;;;;;;;;;;20.50;73.30;;;;;;5096206;28;1013;-68
2022/10/31 01:58:52;;;;;;;;;;;20.50;73.30;;;;;;5094710;28;1337;-67
2022/10/31 02:01:17;;;;;;;;;;;20.50;73.30;;;;;;5094602;28;1034;-67
2022/10/31 02:03:43;;;;;;;;;;;20.50;73.30;;;;;;5077171;28;843;-69
2022/10/31 02:06:10;;;;;;;;;;;20.50;73.40;;;;;;5097679;28;997;-67
2022/10/31 02:08:35;;;;;;;;;;;20.50;73.30;;;;;;5093438;28;1906;-67
2022/10/31 02:11:01;;;;;;;;;;;20.50;73.40;;;;;;5074642;28;923;-67
2022/10/31 02:13:27;;;;;;;;;;;20.50;73.40;;;;;;5095946;28;876;-67
2022/10/31 02:15:53;;;;;;;;;;;20.50;73.40;;;;;;5075159;28;1006;-67
2022/10/31 02:18:19;;;;;;;;;;;20.50;73.40;;;;;;5092488;28;1345;-67
2022/10/31 02:20:50;;;;;;;;;;;20.50;73.40;;;;;;5093149;28;1010;-67
2022/10/31 02:23:19;;;;;;;;;;;20.50;73.40;;;;;;5091504;28;875;-67
2022/10/31 02:26:03;;;;;;;;;;;20.50;73.40;;;;;;5092115;28;999;-66
2022/10/31 02:28:47;;;;;;;;;;;20.50;73.40;;;;;;5093029;28;1361;-67
2022/10/31 02:31:18;;;;;;;;;;;20.50;73.40;;;;;;5094903;28;1347;-67
2022/10/31 02:33:45;;;;;;;;;;;20.50;73.40;;;;;;5091701;28;865;-67
2022/10/31 02:36:13;;;;;;;;;;;20.50;73.40;;;;;;5076298;28;963;-67
2022/10/31 02:39:02;;;;;;;;;;;20.40;73.30;;;;;;5076809;28;1358;-67
2022/10/31 02:41:37;;;;;;;;;;;20.50;73.40;;;;;;5084954;28;1768;-67
2022/10/31 02:44:07;;;;;;;;;;;20.50;73.40;;;;;;5072305;28;1064;-67
2022/10/31 02:46:33;;;;;;;;;;;20.40;73.30;;;;;;5074811;28;1309;-67
2022/10/31 02:49:00;;;;;;;;;;;20.50;73.40;;;;;;5092244;28;1977;-67
2022/10/31 02:51:25;;;;;;;;;;;20.50;73.40;;;;;;5093497;28;867;-67
2022/10/31 02:53:51;;;;;;;;;;;20.40;73.30;;;;;;5076048;28;835;-67
2022/10/31 02:56:17;;;;;;;;;;;20.50;73.40;;;;;;5091334;28;855;-67
2022/10/31 02:58:53;;;;;;;;;;;20.50;73.40;;;;;;5074656;28;1351;-67
2022/10/31 03:01:24;;;;;;;;;;;20.40;73.30;;;;;;5094587;28;883;-67
2022/10/31 03:03:52;;;;;;;;;;;20.50;73.40;;;;;;5091048;28;819;-67
2022/10/31 03:06:24;;;;;;;;;;;20.40;73.80;;;;;;5069710;28;1053;-67
2022/10/31 03:08:59;;;;;;;;;;;20.50;73.40;;;;;;5092578;28;1898;-67
2022/10/31 03:11:33;;;;;;;;;;;20.50;73.40;;;;;;5076611;28;902;-67
2022/10/31 03:14:06;;;;;;;;;;;20.50;73.40;;;;;;5078369;28;1452;-67
2022/10/31 03:16:46;;;;;;;;;;;20.50;73.40;;;;;;5074487;28;1019;-66
2022/10/31 03:19:12;;;;;;;;;;;20.40;73.40;;;;;;5073378;28;1284;-67
2022/10/31 03:21:48;;;;;;;;;;;20.40;73.30;;;;;;5075028;28;1027;-67
2022/10/31 03:24:13;;;;;;;;;;;20.40;73.30;;;;;;5090767;28;1277;-66
2022/10/31 03:26:41;;;;;;;;;;;20.50;73.40;;;;;;5079160;28;820;-66
2022/10/31 03:29:06;;;;;;;;;;;20.50;73.40;;;;;;5091651;28;1963;-67
2022/10/31 03:31:33;;;;;;;;;;;20.50;73.40;;;;;;5092899;28;1364;-66
2022/10/31 03:33:59;;;;;;;;;;;20.50;73.40;;;;;;5074043;28;978;-68
2022/10/31 03:36:25;;;;;;;;;;;20.40;73.40;;;;;;5077499;28;862;-68
2022/10/31 03:38:50;;;;;;;;;;;20.40;73.40;;;;;;5074137;28;1346;-68
2022/10/31 03:41:21;;;;;;;;;;;20.40;73.40;;;;;;5073775;28;1686;-69
2022/10/31 03:43:54;;;;;;;;;;;20.50;73.40;;;;;;5070740;28;868;-67
2022/10/31 03:46:19;;;;;;;;;;;20.40;73.40;;;;;;5072995;28;899;-69
2022/10/31 03:48:45;;;;;;;;;;;20.50;73.50;;;;;;5074921;28;1973;-67
2022/10/31 03:51:15;;;;;;;;;;;20.50;73.40;;;;;;5075729;28;1231;-67
2022/10/31 03:53:44;;;;;;;;;;;20.50;73.50;;;;;;5073948;28;839;-67
2022/10/31 03:56:12;;;;;;;;;;;20.40;73.40;;;;;;5073230;28;904;-67
2022/10/31 03:58:39;;;;;;;;;;;20.50;73.50;;;;;;5073647;28;1348;-66
2022/10/31 04:01:05;;;;;;;;;;;20.50;73.40;;;;;;5076433;28;845;-66
2022/10/31 04:03:32;;;;;;;;;;;20.50;73.40;;;;;;5073074;28;877;-67
2022/10/31 04:05:58;;;;;;;;;;;20.50;73.40;;;;;;5070662;28;895;-67
2022/10/31 04:08:24;;;;;;;;;;;20.50;73.50;;;;;;5073821;28;1310;-66
2022/10/31 04:10:50;;;;;;;;;;;20.40;73.40;;;;;;5072554;28;1973;-67
2022/10/31 04:13:17;;;;;;;;;;;20.50;73.40;;;;;;5072748;28;1195;-68
2022/10/31 04:15:42;;;;;;;;;;;20.40;73.40;;;;;;5071879;28;915;-68
2022/10/31 04:18:08;;;;;;;;;;;20.40;73.40;;;;;;5090647;28;875;-68
2022/10/31 04:20:34;;;;;;;;;;;20.40;73.40;;;;;;5079109;28;1284;-68
2022/10/31 04:23:00;;;;;;;;;;;20.40;73.40;;;;;;5073411;28;1046;-68
2022/10/31 04:25:25;;;;;;;;;;;20.40;73.40;;;;;;5095788;28;1315;-68
2022/10/31 04:27:51;;;;;;;;;;;20.40;73.40;;;;;;5091837;28;1270;-69
2022/10/31 04:30:16;;;;;;;;;;;20.40;74.10;;;;;;5091040;28;1960;-69
2022/10/31 04:32:42;;;;;;;;;;;20.40;73.40;;;;;;5094264;28;1425;-68
2022/10/31 04:35:07;;;;;;;;;;;20.40;73.40;;;;;;5090576;28;875;-67
2022/10/31 04:37:33;;;;;;;;;;;20.40;73.40;;;;;;5091826;28;954;-68
2022/10/31 04:39:58;;;;;;;;;;;20.50;73.50;;;;;;5090606;28;1220;-67
2022/10/31 04:42:23;;;;;;;;;;;20.40;73.40;;;;;;5090549;28;1057;-68
2022/10/31 04:44:49;;;;;;;;;;;20.40;73.40;;;;;;5092837;28;1033;-68
2022/10/31 04:47:14;;;;;;;;;;;20.50;73.50;;;;;;5091027;28;1188;-68
2022/10/31 04:49:40;;;;;;;;;;;20.40;73.40;;;;;;5093617;28;1914;-68
2022/10/31 04:52:06;;;;;;;;;;;20.40;73.40;;;;;;5091026;28;857;-67
2022/10/31 04:54:32;;;;;;;;;;;20.40;73.40;;;;;;5090408;28;894;-68
2022/10/31 04:56:57;;;;;;;;;;;20.50;73.50;;;;;;5073241;28;930;-68
2022/10/31 04:59:23;;;;;;;;;;;20.40;73.40;;;;;;5090530;28;1313;-68
2022/10/31 05:01:48;;;;;;;;;;;20.50;73.50;;;;;;5074618;28;936;-67
2022/10/31 05:04:14;;;;;;;;;;;20.40;73.40;;;;;;5089272;28;1029;-67
2022/10/31 05:06:39;;;;;;;;;;;20.40;73.40;;;;;;5089737;28;882;-68
2022/10/31 05:09:05;;;;;;;;;;;20.40;73.40;;;;;;5095742;28;1969;-67
2022/10/31 05:11:30;;;;;;;;;;;20.40;73.40;;;;;;5091023;28;894;-67
2022/10/31 05:13:55;;;;;;;;;;;20.50;73.40;;;;;;5089721;28;812;-67
2022/10/31 05:16:21;;;;;;;;;;;20.50;73.40;;;;;;5092753;28;883;-67
2022/10/31 05:18:46;;;;;;;;;;;20.50;73.40;;;;;;5095957;28;1357;-68
2022/10/31 05:21:12;;;;;;;;;;;20.50;73.20;;;;;;5079068;28;1103;-67
2022/10/31 05:23:37;;;;;;;;;;;20.50;73.20;;;;;;5096220;28;871;-67
2022/10/31 05:26:03;;;;;;;;;;;20.50;73.20;;;;;;5075573;28;855;-68
2022/10/31 05:28:28;;;;;;;;;;;20.60;73.10;;;;;;5095067;28;1264;-68
2022/10/31 05:30:54;;;;;;;;;;;20.60;73.00;;;;;;5092622;28;1949;-68
2022/10/31 05:33:19;;;;;;;;;;;20.60;72.90;;;;;;5097948;28;1383;-68
2022/10/31 05:35:44;;;;;;;;;;;20.60;72.90;;;;;;5095085;28;887;-68
2022/10/31 05:38:10;;;;;;;;;;;20.60;72.80;;;;;;5093553;28;1600;-68
2022/10/31 05:40:35;;;;;;;;;;;20.60;72.70;;;;;;5095287;28;1270;-68
2022/10/31 05:43:01;;;;;;;;;;;20.70;72.70;;;;;;5097030;28;923;-69
2022/10/31 05:45:26;;;;;;;;;;;20.70;72.60;;;;;;5059335;28;1254;-70
2022/10/31 05:47:52;;;;;;;;;;;20.70;72.50;;;;;;5093902;28;1014;-69
2022/10/31 05:50:18;;;;;;;;;;;20.70;72.50;;;;;;5075343;28;1906;-68
2022/10/31 05:52:43;;;;;;;;;;;20.70;72.40;;;;;;5074835;28;925;-69
2022/10/31 05:55:08;;;;;;;;;;;20.70;72.40;;;;;;5097510;28;827;-69
2022/10/31 05:57:34;;;;;;;;;;;20.70;72.30;;;;;;5096972;28;887;-68
2022/10/31 05:59:59;;;;;;;;;;;20.80;72.40;;;;;;5093459;28;1356;-66
2022/10/31 06:02:26;;;;;;;;;;;20.80;72.30;;;;;;5094408;28;875;-67
2022/10/31 06:04:52;;;;;;;;;;;20.80;72.30;;;;;;5093320;28;929;-68
2022/10/31 06:07:17;;;;;;;;;;;20.80;72.20;;;;;;5096208;28;1320;-68
2022/10/31 06:09:42;;;;;;;;;;;20.70;72.10;;;;;;5093430;28;1913;-68
2022/10/31 06:12:08;;;;;;;;;;;20.80;72.10;;;;;;5093168;28;825;-68
2022/10/31 06:14:33;;;;;;;;;;;20.80;72.00;;;;;;5094396;28;808;-68
2022/10/31 06:16:59;;;;;;;;;;;20.80;72.00;;;;;;5093440;28;877;-68
2022/10/31 06:19:24;;;;;;;;;;;20.80;71.90;;;;;;5092755;28;1314;-68
2022/10/31 06:21:50;;;;;;;;;;;20.80;71.90;;;;;;5093322;28;919;-68
2022/10/31 06:24:15;;;;;;;;;;;20.80;71.80;;;;;;5073951;28;1471;-68
2022/10/31 06:26:41;;;;;;;;;;;20.80;71.90;;;;;;5092491;28;887;-68
2022/10/31 06:29:06;;;;;;;;;;;20.80;71.80;;;;;;5072367;28;1910;-68
2022/10/31 06:31:31;;;;;;;;;;;20.80;71.80;;;;;;5094145;28;1409;-68
2022/10/31 06:33:57;;;;;;;;;;;20.80;71.80;;;;;;5093332;28;811;-68
2022/10/31 06:36:22;;;;;;;;;;;20.80;71.80;;;;;;5093308;28;854;-69
2022/10/31 06:38:48;;;;;;;;;;;20.80;71.80;;;;;;5092127;28;1310;-69
2022/10/31 06:41:13;;;;;;;;;;;20.80;71.80;;;;;;5087426;28;1847;-72
2022/10/31 06:43:38;;;;;;;;;;;20.80;71.80;;;;;;5087064;28;1770;-71
2022/10/31 06:46:04;;;;;;;;;;;20.80;71.80;;;;;;5091779;28;1436;-68
2022/10/31 06:48:30;;;;;;;;;;;20.80;71.80;;;;;;5091552;28;1384;-68
2022/10/31 06:50:59;;;;;;;;;;;20.80;71.90;;;;;;5073909;28;1906;-68
2022/10/31 06:53:25;;;;;;;;;;;20.90;72.10;;;;;;5074510;28;914;-68
2022/10/31 06:55:50;;;;;;;;;;;20.90;71.90;;;;;;5092252;28;1174;-69
2022/10/31 06:58:15;;;;;;;;;;;20.90;71.70;;;;;;5094625;28;784;-69
2022/10/31 07:00:41;;;;;;;;;;;21.00;71.70;;;;;;5074078;28;1312;-69
2022/10/31 07:03:08;;;;;;;;;;;21.00;71.60;;;;;;5091003;28;899;-68
2022/10/31 07:05:34;;;;;;;;;;;21.00;71.50;;;;;;5071900;28;1025;-70
2022/10/31 07:08:00;;;;;;;;;;;21.00;71.40;;;;;;5090470;28;868;-69
2022/10/31 07:10:26;;;;;;;;;;;21.00;71.30;;;;;;5090447;28;1972;-70
2022/10/31 07:12:55;;;;;;;;;;;21.10;71.20;;;;;;5088769;28;1030;-69
2022/10/31 07:15:21;;;;;;;;;;;21.10;71.20;;;;;;5069821;28;919;-69
2022/10/31 07:17:47;;;;;;;;;;;21.10;71.10;;;;;;5089503;28;874;-68
2022/10/31 07:20:12;;;;;;;;;;;21.10;71.10;;;;;;5090296;28;1236;-68
2022/10/31 07:22:38;;;;;;;;;;;21.10;71.10;;;;;;5091453;28;927;-69
2022/10/31 07:25:04;;;;;;;;;;;21.10;71.00;;;;;;5070885;28;875;-68
2022/10/31 07:27:34;;;;;;;;;;;21.10;70.90;;;;;;5090515;28;1006;-67
2022/10/31 07:30:00;;;;;;;;;;;21.10;71.00;;;;;;5090404;28;1967;-68
2022/10/31 07:32:25;;;;;;;;;;;21.20;71.00;;;;;;5072827;28;1647;-67
2022/10/31 07:34:51;;;;;;;;;;;21.20;71.00;;;;;;5074243;28;4513;-68
2022/10/31 07:37:16;;;;;;;;;;;21.10;70.90;;;;;;5086757;28;3884;-69
2022/10/31 07:39:41;;;;;;;;;;;21.10;70.90;;;;;;5090607;28;1302;-68
2022/10/31 07:42:07;;;;;;;;;;;21.10;70.90;;;;;;5091065;28;862;-68
2022/10/31 07:44:32;;;;;;;;;;;21.10;71.00;;;;;;5090904;28;1919;-68
2022/10/31 07:46:58;;;;;;;;;;;21.10;70.90;;;;;;5091539;28;1336;-67
2022/10/31 07:49:25;;;;;;;;;;;21.10;70.90;;;;;;5090531;28;1911;-69
2022/10/31 07:51:50;;;;;;;;;;;21.20;71.00;;;;;;5094418;28;966;-69
2022/10/31 07:54:16;;;;;;;;;;;21.10;70.90;;;;;;5093886;28;950;-69
2022/10/31 07:56:41;;;;;;;;;;;21.20;70.90;;;;;;5091867;28;1081;-69
2022/10/31 07:59:07;;;;;;;;;;;21.10;70.90;;;;;;5091743;28;1761;-69
2022/10/31 08:01:32;;;;;;;;;;;21.10;70.90;;;;;;5090376;28;933;-69
2022/10/31 08:03:57;;;;;;;;;;;21.10;70.90;;;;;;5091602;28;886;-69
2022/10/31 08:06:23;;;;;;;;;;;21.20;71.00;;;;;;5091746;28;888;-69
2022/10/31 08:08:48;;;;;;;;;;;21.10;70.90;;;;;;5092217;28;1930;-69
2022/10/31 08:11:14;;;;;;;;;;;21.10;71.00;;;;;;5074247;28;824;-69
2022/10/31 08:13:40;;;;;;;;;;;21.10;71.00;;;;;;5089805;28;891;-70
2022/10/31 08:16:07;;;;;;;;;;;21.10;71.00;;;;;;5093646;28;843;-68
2022/10/31 08:18:32;;;;;;;;;;;21.10;71.00;;;;;;5090697;28;1334;-68
2022/10/31 08:20:58;;;;;;;;;;;21.10;71.10;;;;;;5073412;28;912;-67
2022/10/31 08:23:23;;;;;;;;;;;21.10;71.10;;;;;;5091153;28;906;-68
2022/10/31 08:25:48;;;;;;;;;;;21.10;71.20;;;;;;5090027;28;1296;-68
2022/10/31 08:28:14;;;;;;;;;;;21.10;71.20;;;;;;5093422;28;1328;-68
2022/10/31 08:30:39;;;;;;;;;;;21.00;71.10;;;;;;5072539;28;1910;-68
2022/10/31 08:33:06;;;;;;;;;;;21.00;71.20;;;;;;5092935;28;1009;-68
2022/10/31 08:35:32;;;;;;;;;;;21.00;71.20;;;;;;5091126;28;1207;-69
2022/10/31 08:37:57;;;;;;;;;;;21.10;71.30;;;;;;5091122;28;874;-69
2022/10/31 08:40:23;;;;;;;;;;;21.00;71.20;;;;;;5080165;28;1298;-69
2022/10/31 08:42:55;;;;;;;;;;;21.10;71.30;;;;;;5090432;28;902;-69
2022/10/31 08:45:20;;;;;;;;;;;21.10;71.40;;;;;;5075457;28;954;-68
2022/10/31 08:47:46;;;;;;;;;;;21.00;71.30;;;;;;5090554;28;894;-69
2022/10/31 08:50:11;;;;;;;;;;;21.10;71.40;;;;;;5090356;28;1903;-68
2022/10/31 08:52:37;;;;;;;;;;;21.10;71.40;;;;;;5094038;28;958;-68
2022/10/31 08:55:02;;;;;;;;;;;21.10;71.30;;;;;;5094217;28;966;-68
2022/10/31 08:57:27;;;;;;;;;;;21.00;71.30;;;;;;5095732;28;1045;-68
2022/10/31 08:59:53;;;;;;;;;;;21.00;71.30;;;;;;5094913;28;1344;-67
2022/10/31 09:02:18;;;;;;;;;;;21.00;71.30;;;;;;5094293;28;1073;-68
2022/10/31 09:04:44;;;;;;;;;;;21.00;71.30;;;;;;5093792;28;1061;-69
2022/10/31 09:07:09;;;;;;;;;;;21.00;71.30;;;;;;5096487;28;1010;-69
2022/10/31 09:09:35;;;;;;;;;;;21.00;71.40;;;;;;5097743;28;1910;-69
2022/10/31 09:12:00;;;;;;;;;;;21.00;71.40;;;;;;5095937;28;1257;-69
2022/10/31 09:14:26;;;;;;;;;;;21.00;71.40;;;;;;5094202;28;915;-69
2022/10/31 09:16:51;;;;;;;;;;;21.00;71.50;;;;;;5100675;28;871;-69
2022/10/31 09:19:17;;;;;;;;;;;21.00;71.60;;;;;;5094325;28;1266;-69
2022/10/31 09:21:42;;;;;;;;;;;21.00;71.60;;;;;;5094752;28;907;-68
2022/10/31 09:24:08;;;;;;;;;;;21.00;71.60;;;;;;5094424;28;925;-68
2022/10/31 09:26:33;;;;;;;;;;;21.00;71.60;;;;;;5099033;28;953;-68
2022/10/31 09:29:01;;;;;;;;;;;21.00;71.60;;;;;;5093480;28;1961;-68
2022/10/31 09:31:27;;;;;;;;;;;21.00;71.70;;;;;;5096221;28;1443;-68
2022/10/31 09:33:53;;;;;;;;;;;20.90;71.60;;;;;;5079412;28;1081;-68
2022/10/31 09:36:18;;;;;;;;;;;21.00;71.70;;;;;;5075506;28;843;-67
2022/10/31 09:38:44;;;;;;;;;;;21.00;71.70;;;;;;5097115;28;1260;-68
2022/10/31 09:41:22;;;;;;;;;;;20.90;71.70;;;;;;5096561;28;1199;-68
2022/10/31 09:46:26;;;;;;;;;;;20.90;71.80;;;;;;5215230;22;1911;-68
2022/10/31 09:49:10;;;;;;;;;;;20.90;71.80;;;;;;5083691;28;1922;-69
2022/10/31 09:51:37;;;;;;;;;;;20.90;71.90;;;;;;5072634;28;1320;-68
2022/10/31 09:54:08;;;;;;;;;;;20.90;71.90;;;;;;5087292;28;1353;-68
2022/10/31 09:56:35;;;;;;;;;;;20.90;71.90;;;;;;5055890;28;844;-70
2022/10/31 09:59:02;;;;;;;;;;;20.90;72.00;;;;;;5041603;28;939;-70
2022/10/31 10:01:36;;;;;;;;;;;20.90;72.00;;;;;;5019620;28;2264;-68
2022/10/31 10:04:10;;;;;;;;;;;20.80;72.00;;;;;;5057265;28;1339;-69
2022/10/31 10:06:36;;;;;;;;;;;20.90;72.00;;;;;;5028275;28;1296;-68
2022/10/31 10:09:01;;;;;;;;;;;20.90;72.10;;;;;;5041408;28;1906;-68
2022/10/31 10:11:46;;;;;;;;;;;20.90;72.10;;;;;;5037682;28;907;-69
2022/10/31 10:14:21;;;;;;;;;;;20.90;72.10;;;;;;5042422;28;1377;-69
2022/10/31 10:16:54;;;;;;;;;;;20.80;72.10;;;;;;5043891;28;1257;-71
2022/10/31 10:19:23;;;;;;;;;;;20.80;72.10;;;;;;5035745;28;1285;-70
2022/10/31 10:21:51;;;;;;;;;;;20.80;72.10;;;;;;5023352;28;1000;-70
2022/10/31 10:24:35;;;;;;;;;;;20.80;72.20;;;;;;5036980;28;1351;-70
2022/10/31 10:27:19;;;;;;;;;;;20.80;72.20;;;;;;5040751;28;817;-70
2022/10/31 10:29:50;;;;;;;;;;;20.80;72.20;;;;;;5057996;28;1902;-70
2022/10/31 10:32:38;;;;;;;;;;;20.80;72.30;;;;;;5041441;28;1282;-70
2022/10/31 10:35:10;;;;;;;;;;;20.80;72.30;;;;;;5038140;28;1697;-70
2022/10/31 10:37:37;;;;;;;;;;;20.80;73.00;;;;;;5026118;28;1359;-70
2022/10/31 10:40:07;;;;;;;;;;;20.80;72.30;;;;;;5026501;28;1547;-69
2022/10/31 10:48:08;;;;;;;;;;;20.80;72.40;;;;;;5041879;28;776;-69
2022/10/31 10:50:39;;;;;;;;;;;20.80;72.40;;;;;;5023615;28;1902;-69
2022/10/31 10:53:20;;;;;;;;;;;20.80;72.50;;;;;;5022689;28;859;-69
2022/10/31 10:55:49;;;;;;;;;;;20.80;72.50;;;;;;5040831;28;1318;-69
2022/10/31 10:58:14;;;;;;;;;;;20.80;72.50;;;;;;5041269;28;998;-69
2022/10/31 11:00:40;;;;;;;;;;;20.80;72.50;;;;;;5037980;28;971;-69
2022/10/31 11:03:06;;;;;;;;;;;20.80;72.50;;;;;;5019422;28;1545;-69
2022/10/31 11:05:39;;;;;;;;;;;20.80;72.50;;;;;;5037375;28;1282;-69
2022/10/31 11:08:04;;;;;;;;;;;20.80;72.60;;;;;;5024787;28;839;-69
2022/10/31 11:10:30;;;;;;;;;;;20.70;72.50;;;;;;5035463;28;1953;-69
2022/10/31 11:13:06;;;;;;;;;;;20.70;72.50;;;;;;5038925;28;809;-68
2022/10/31 11:15:35;;;;;;;;;;;20.70;72.60;;;;;;5023756;28;1223;-69
2022/10/31 11:18:00;;;;;;;;;;;20.70;72.60;;;;;;5041042;28;1136;-69
2022/10/31 11:20:30;;;;;;;;;;;20.70;72.60;;;;;;5037070;28;1005;-69
2022/10/31 11:23:03;;;;;;;;;;;20.70;72.60;;;;;;5020313;28;834;-68
2022/10/31 11:25:28;;;;;;;;;;;20.70;72.70;;;;;;5016258;28;1343;-69
2022/10/31 11:28:04;;;;;;;;;;;20.70;72.70;;;;;;5051462;28;1123;-69
2022/10/31 11:30:29;;;;;;;;;;;20.70;72.70;;;;;;5040295;28;1961;-69
2022/10/31 11:32:55;;;;;;;;;;;20.70;72.70;;;;;;5039104;28;1402;-69
2022/10/31 11:35:20;;;;;;;;;;;20.70;72.70;;;;;;5037478;28;1627;-69
2022/10/31 11:37:46;;;;;;;;;;;20.70;72.80;;;;;;5037636;28;856;-69
2022/10/31 11:40:22;;;;;;;;;;;20.70;72.80;;;;;;5039632;28;962;-69
2022/10/31 11:42:47;;;;;;;;;;;20.70;72.80;;;;;;5038903;28;1315;-69
2022/10/31 11:45:16;;;;;;;;;;;20.70;72.80;;;;;;5040140;28;1322;-69
2022/10/31 11:47:42;;;;;;;;;;;20.70;72.80;;;;;;5037470;28;828;-69
2022/10/31 11:50:09;;;;;;;;;;;20.70;72.90;;;;;;5036950;28;1909;-69
2022/10/31 11:52:37;;;;;;;;;;;20.70;72.90;;;;;;5023190;28;1033;-69
2022/10/31 11:55:12;;;;;;;;;;;20.70;72.90;;;;;;5019454;28;1351;-69
2022/10/31 11:57:44;;;;;;;;;;;20.70;72.90;;;;;;5038411;28;1012;-69
2022/10/31 12:00:19;;;;;;;;;;;20.70;72.90;;;;;;5019004;28;1009;-71
2022/10/31 12:02:45;;;;;;;;;;;20.70;73.00;;;;;;5037119;28;922;-69
2022/10/31 12:05:17;;;;;;;;;;;20.70;73.00;;;;;;5023236;28;1343;-70
2022/10/31 12:07:43;;;;;;;;;;;20.70;73.00;;;;;;5035569;28;1338;-69
2022/10/31 12:10:12;;;;;;;;;;;20.60;72.90;;;;;;5033407;28;1897;-69
2022/10/31 12:12:46;;;;;;;;;;;20.60;73.00;;;;;;5042182;28;816;-71
2022/10/31 12:15:21;;;;;;;;;;;20.60;72.90;;;;;;5031930;28;4173;-70
2022/10/31 12:18:05;;;;;;;;;;;20.60;73.00;;;;;;5038631;28;1332;-70
2022/10/31 12:20:30;;;;;;;;;;;20.60;73.00;;;;;;5039134;28;1376;-69
2022/10/31 12:23:03;;;;;;;;;;;20.60;73.00;;;;;;5038133;28;808;-69
2022/10/31 12:25:31;;;;;;;;;;;20.60;73.00;;;;;;5021087;28;1361;-69
2022/10/31 12:28:17;;;;;;;;;;;20.60;73.00;;;;;;5036134;28;844;-69
2022/10/31 12:31:01;;;;;;;;;;;20.60;73.00;;;;;;5038905;28;1930;-70
2022/10/31 12:33:33;;;;;;;;;;;20.60;73.00;;;;;;5040647;28;1372;-71
2022/10/31 12:36:02;;;;;;;;;;;20.60;73.00;;;;;;5038883;28;1521;-70
2022/10/31 12:38:36;;;;;;;;;;;20.60;73.00;;;;;;5038944;28;1392;-69
2022/10/31 12:41:11;;;;;;;;;;;20.60;73.10;;;;;;5039362;28;1444;-70
2022/10/31 12:43:52;;;;;;;;;;;20.60;73.10;;;;;;5031836;28;1084;-68
2022/10/31 12:46:27;;;;;;;;;;;20.60;73.10;;;;;;5027377;28;1537;-70
2022/10/31 12:48:57;;;;;;;;;;;20.60;73.10;;;;;;5027610;28;1230;-68
2022/10/31 12:51:22;;;;;;;;;;;20.60;73.10;;;;;;5031431;28;1423;-68
2022/10/31 12:53:56;;;;;;;;;;;20.60;73.10;;;;;;5027324;28;984;-70
2022/10/31 12:56:25;;;;;;;;;;;20.60;73.10;;;;;;5030976;28;1304;-69
2022/10/31 12:58:56;;;;;;;;;;;20.60;73.10;;;;;;5037642;28;1254;-69
2022/10/31 13:01:24;;;;;;;;;;;20.60;73.10;;;;;;5004109;28;1127;-70
2022/10/31 13:03:53;;;;;;;;;;;20.60;73.10;;;;;;5040275;28;1048;-69
2022/10/31 13:06:19;;;;;;;;;;;20.60;73.20;;;;;;5018725;28;1256;-68
2022/10/31 13:08:46;;;;;;;;;;;20.60;73.10;;;;;;5031243;28;1010;-69
2022/10/31 13:11:20;;;;;;;;;;;20.60;74.30;;;;;;5017086;28;1996;-67
2022/10/31 13:13:49;;;;;;;;;;;20.60;74.90;;;;;;5035014;28;1340;-69
2022/10/31 13:16:22;;;;;;;;;;;20.60;74.70;;;;;;5036828;28;1416;-69
2022/10/31 13:18:48;;;;;;;;;;;20.60;74.80;;;;;;5019309;28;1364;-68
2022/10/31 13:21:31;;;;;;;;;;;20.60;74.70;;;;;;5034001;28;981;-69
2022/10/31 13:23:57;;;;;;;;;;;20.60;74.60;;;;;;5034719;28;803;-66
2022/10/31 13:26:27;;;;;;;;;;;20.70;74.60;;;;;;5035898;28;1231;-69
2022/10/31 13:29:02;;;;;;;;;;;20.70;74.00;;;;;;5037452;28;1442;-68
2022/10/31 13:31:27;;;;;;;;;;;20.70;74.10;;;;;;5039723;28;1474;-68
2022/10/31 13:33:57;;;;;;;;;;;20.70;74.20;;;;;;5034671;28;969;-68
2022/10/31 13:36:34;;;;;;;;;;;20.70;74.10;;;;;;5018193;28;1383;-68
2022/10/31 13:39:02;;;;;;;;;;;20.70;73.90;;;;;;5024154;28;1072;-69
2022/10/31 13:41:46;;;;;;;;;;;20.70;74.00;;;;;;5020753;28;891;-69
2022/10/31 13:44:13;;;;;;;;;;;20.70;73.90;;;;;;5035812;28;1257;-67
2022/10/31 13:46:39;;;;;;;;;;;20.70;74.00;;;;;;5023210;28;857;-68
2022/10/31 13:49:21;;;;;;;;;;;20.70;74.10;;;;;;5039416;28;1975;-68
2022/10/31 13:51:48;;;;;;;;;;;20.70;74.10;;;;;;5038962;28;870;-68
2022/10/31 13:54:30;;;;;;;;;;;20.70;74.10;;;;;;5040691;28;1702;-68
2022/10/31 13:56:55;;;;;;;;;;;20.70;74.10;;;;;;5030419;28;1372;-70
2022/10/31 13:59:22;;;;;;;;;;;20.70;74.20;;;;;;5040525;28;888;-69
2022/10/31 14:01:57;;;;;;;;;;;20.70;74.00;;;;;;5039821;28;836;-69
2022/10/31 14:04:23;;;;;;;;;;;20.70;73.90;;;;;;5022903;28;1364;-68
2022/10/31 14:06:49;;;;;;;;;;;20.70;73.90;;;;;;5038053;28;847;-69
2022/10/31 14:09:18;;;;;;;;;;;20.70;73.90;;;;;;5044080;28;2019;-70
2022/10/31 14:11:45;;;;;;;;;;;20.70;73.90;;;;;;5042112;28;881;-69
2022/10/31 14:14:11;;;;;;;;;;;20.70;73.80;;;;;;5024731;28;1430;-67
2022/10/31 14:16:38;;;;;;;;;;;20.70;73.80;;;;;;5041284;28;1009;-70
2022/10/31 14:19:06;;;;;;;;;;;20.70;73.50;;;;;;5038968;28;859;-69
2022/10/31 14:21:36;;;;;;;;;;;20.70;73.70;;;;;;5040916;28;875;-68
2022/10/31 14:24:02;;;;;;;;;;;20.70;73.10;;;;;;5022230;28;799;-69
2022/10/31 14:26:34;;;;;;;;;;;20.70;73.40;;;;;;5036441;28;1290;-69
2022/10/31 14:29:00;;;;;;;;;;;20.70;73.50;;;;;;5040107;28;1960;-68
2022/10/31 14:31:33;;;;;;;;;;;20.70;73.40;;;;;;5043718;28;966;-69
2022/10/31 14:34:04;;;;;;;;;;;20.70;73.20;;;;;;5022566;28;1784;-69
2022/10/31 14:36:37;;;;;;;;;;;20.70;73.00;;;;;;5022627;28;1419;-70
2022/10/31 14:39:07;;;;;;;;;;;20.70;72.60;;;;;;5039963;28;850;-69
2022/10/31 14:41:52;;;;;;;;;;;20.70;72.50;;;;;;5041507;28;797;-69
2022/10/31 14:44:17;;;;;;;;;;;20.70;72.50;;;;;;5022452;28;1389;-70
2022/10/31 14:46:55;;;;;;;;;;;20.70;72.60;;;;;;5040760;28;974;-70
2022/10/31 14:49:32;;;;;;;;;;;20.60;72.50;;;;;;5054815;28;1945;-69